createdAt,value
2022-07-30T00:01:52.837Z,15.60
2022-07-30T00:06:59.963Z,17.40
2022-07-30T00:12:01.846Z,17.40
2022-07-30T00:17:05.218Z,17.20
2022-07-30T00:22:07.490Z,17.20
2022-07-30T00:27:09.261Z,17.30
2022-07-30T00:32:10.960Z,17.20
2022-07-30T00:37:12.777Z,17.50
2022-07-30T00:42:14.669Z,17.40
2022-07-30T00:47:16.412Z,16.80
2022-07-30T00:52:18.198Z,16.80
2022-07-30T00:57:19.882Z,16.70
2022-07-30T01:02:22.082Z,16.50
2022-07-30T01:07:27.098Z,16.50
2022-07-30T01:12:29.730Z,16.80
2022-07-30T01:17:31.662Z,16.50
2022-07-30T01:22:42.506Z,16.60
2022-07-30T01:28:06.288Z,16.70
2022-07-30T01:33:11.779Z,16.50
2022-07-30T01:38:16.594Z,16.10
2022-07-30T01:53:54.522Z,15.10
2022-07-30T01:58:58.141Z,16.50
2022-07-30T02:04:01.909Z,16.20
2022-07-30T02:09:10.722Z,16.10
2022-07-30T02:14:23.742Z,16.20
2022-07-30T02:19:34.290Z,16.20
2022-07-30T02:24:38.635Z,15.90
2022-07-30T02:29:42.635Z,15.80
2022-07-30T02:34:47.295Z,15.70
2022-07-30T02:39:50.802Z,15.70
2022-07-30T02:44:54.688Z,16.10
2022-07-30T02:49:58.500Z,16.00
2022-07-30T02:55:02.340Z,15.90
2022-07-30T03:00:05.721Z,15.90
2022-07-30T03:05:08.789Z,15.90
2022-07-30T03:10:12.158Z,15.90
2022-07-30T03:15:14.381Z,15.80
2022-07-30T03:20:19.905Z,15.60
2022-07-30T03:25:34.505Z,15.30
2022-07-30T03:30:48.208Z,15.40
2022-07-30T03:35:52.054Z,15.20
2022-07-30T03:40:55.611Z,15.00
2022-07-30T03:45:58.566Z,15.10
2022-07-30T03:51:13.974Z,15.10
2022-07-30T03:56:15.926Z,15.10
2022-07-30T04:01:17.973Z,15.30
2022-07-30T04:06:20.113Z,15.50
2022-07-30T04:16:47.030Z,15.30
2022-07-30T04:21:54.321Z,15.20
2022-07-30T04:47:05.818Z,15.20
2022-07-30T04:52:09.261Z,15.00
2022-07-30T04:57:12.906Z,15.20
2022-07-30T05:02:16.192Z,15.10
2022-07-30T05:07:22.367Z,15.10
2022-07-30T05:12:34.337Z,15.10
2022-07-30T05:17:37.159Z,15.10
2022-07-30T05:27:44.498Z,15.20
2022-07-30T06:23:12.190Z,16.90
2022-07-30T06:33:39.916Z,17.40
2022-07-30T06:43:44.298Z,18.20
2022-07-30T06:48:46.140Z,18.80
2022-07-30T06:53:48.333Z,19.00
2022-07-30T06:58:50.074Z,19.10
2022-07-30T07:03:51.777Z,19.50
2022-07-30T07:08:53.480Z,19.60
2022-07-30T07:14:01.403Z,19.80
2022-07-30T07:19:06.007Z,20.00
2022-07-30T07:24:08.969Z,20.10
2022-07-30T07:29:10.693Z,20.20
2022-07-30T07:34:16.982Z,20.10
2022-07-30T07:39:18.953Z,20.20
2022-07-30T07:44:20.678Z,20.50
2022-07-30T07:49:22.505Z,20.70
2022-07-30T07:54:24.280Z,20.80
2022-07-30T07:59:36.276Z,20.90
2022-07-30T08:04:42.255Z,21.10
2022-07-30T08:09:45.010Z,21.10
2022-07-30T08:14:46.905Z,21.30
2022-07-30T08:19:48.627Z,21.20
2022-07-30T08:24:50.397Z,21.60
2022-07-30T08:29:56.324Z,21.70
2022-07-30T08:35:00.326Z,21.80
2022-07-30T08:40:03.601Z,22.20
2022-07-30T08:45:06.807Z,21.90
2022-07-30T08:50:09.066Z,22.30
2022-07-30T08:55:11.014Z,22.60
2022-07-30T09:05:16.077Z,22.60
2022-07-30T09:10:18.851Z,22.60
2022-07-30T09:15:36.597Z,22.50
2022-07-30T09:20:38.369Z,22.60
2022-07-30T09:25:44.604Z,22.30
2022-07-30T09:30:53.686Z,22.80
2022-07-30T09:35:56.479Z,22.80
2022-07-30T09:46:15.063Z,23.00
2022-07-30T09:51:18.394Z,23.50
2022-07-30T09:56:26.430Z,23.40
2022-07-30T10:01:49.756Z,23.30
2022-07-30T10:06:50.659Z,23.60
2022-07-30T10:11:56.075Z,23.10
2022-07-30T10:16:58.983Z,23.10
2022-07-30T10:22:12.089Z,24.00
2022-07-30T10:27:14.308Z,24.00
2022-07-30T10:37:20.394Z,23.50
2022-07-30T10:42:33.074Z,23.70
2022-07-30T10:47:40.253Z,24.40
2022-07-30T10:52:50.571Z,24.20
2022-07-30T10:58:08.127Z,24.20
2022-07-30T11:03:40.073Z,24.20
2022-07-30T11:08:48.474Z,24.70
2022-07-30T11:14:01.163Z,24.90
2022-07-30T11:24:47.257Z,25.90
2022-07-30T11:29:51.644Z,25.60
2022-07-30T11:35:23.230Z,25.50
2022-07-30T11:40:36.455Z,26.10
2022-07-30T11:45:38.421Z,25.60
2022-07-30T11:50:40.804Z,26.00
2022-07-30T11:55:45.395Z,24.80
2022-07-30T12:00:48.049Z,25.30
2022-07-30T12:05:52.540Z,26.00
2022-07-30T12:10:58.445Z,25.20
2022-07-30T12:16:00.982Z,24.70
2022-07-30T12:21:14.555Z,25.30
2022-07-30T12:26:26.812Z,25.30
2022-07-30T12:31:29.464Z,25.10
2022-07-30T12:41:59.081Z,24.80
2022-07-30T12:47:01.453Z,25.20
2022-07-30T12:52:04.238Z,24.70
2022-07-30T12:57:06.716Z,23.90
2022-07-30T13:02:08.958Z,24.80
2022-07-30T13:07:26.655Z,24.60
2022-07-30T13:12:29.046Z,24.40
2022-07-30T13:27:41.446Z,24.70
2022-07-30T13:32:43.184Z,24.50
2022-07-30T13:37:44.853Z,24.80
2022-07-30T13:42:46.580Z,25.50
2022-07-30T13:47:48.464Z,25.20
2022-07-30T13:53:02.589Z,25.50
2022-07-30T13:58:06.782Z,25.00
2022-07-30T14:03:11.077Z,25.00
2022-07-30T14:08:12.956Z,25.10
2022-07-30T14:13:20.768Z,25.30
2022-07-30T14:18:23.218Z,25.00
2022-07-30T14:23:24.954Z,25.20
2022-07-30T14:28:26.760Z,25.20
2022-07-30T14:33:28.562Z,25.20
2022-07-30T14:38:30.842Z,24.90
2022-07-30T14:43:32.665Z,24.90
2022-07-30T14:48:34.385Z,24.10
2022-07-30T14:53:36.290Z,24.00
2022-07-30T14:58:38.023Z,24.40
2022-07-30T15:03:40.032Z,24.40
2022-07-30T15:08:42.595Z,24.70
2022-07-30T15:13:50.235Z,24.90
2022-07-30T15:18:52.402Z,24.70
2022-07-30T15:23:54.119Z,25.10
2022-07-30T15:28:55.846Z,25.20
2022-07-30T15:33:57.744Z,24.40
2022-07-30T15:38:59.705Z,24.30
2022-07-30T15:44:01.428Z,24.70
2022-07-30T15:49:03.608Z,25.10
2022-07-30T15:54:06.847Z,25.60
2022-07-30T15:59:09.608Z,24.50
2022-07-30T16:04:22.453Z,24.40
2022-07-30T16:09:34.066Z,24.90
2022-07-30T16:14:36.004Z,24.50
2022-07-30T16:19:37.990Z,24.60
2022-07-30T16:24:39.654Z,24.50
2022-07-30T16:29:41.350Z,24.10
2022-07-30T16:34:43.716Z,23.70
2022-07-30T16:44:47.648Z,23.60
2022-07-30T16:49:54.940Z,24.20
2022-07-30T16:54:56.639Z,23.80
2022-07-30T16:59:58.484Z,23.50
2022-07-30T17:05:00.407Z,23.20
2022-07-30T17:10:02.150Z,23.60
2022-07-30T17:15:06.488Z,23.70
2022-07-30T17:20:10.030Z,23.60
2022-07-30T17:25:11.887Z,23.50
2022-07-30T17:35:15.969Z,23.80
2022-07-30T17:40:29.370Z,23.30
2022-07-30T17:45:34.621Z,23.00
2022-07-30T17:50:36.766Z,23.00
2022-07-30T17:55:38.582Z,23.20
2022-07-30T18:00:40.394Z,23.30
2022-07-30T18:15:46.737Z,22.60
2022-07-30T18:20:48.689Z,22.50
2022-07-30T18:25:51.628Z,22.70
2022-07-30T18:30:55.138Z,22.80
2022-07-30T18:35:56.934Z,23.00
2022-07-30T18:40:58.857Z,22.90
2022-07-30T18:46:02.693Z,22.90
2022-07-30T18:51:09.636Z,22.80
2022-07-30T18:56:13.805Z,22.80
2022-07-30T19:01:18.442Z,22.60
2022-07-30T19:06:21.501Z,22.60
2022-07-30T19:11:23.785Z,22.20
2022-07-30T19:16:25.632Z,22.20
2022-07-30T19:21:27.413Z,21.80
2022-07-30T19:26:29.280Z,21.70
2022-07-30T19:31:31.054Z,22.60
2022-07-30T19:36:33.593Z,21.30
2022-07-30T19:41:40.635Z,21.30
2022-07-30T19:46:43.048Z,21.10
2022-07-30T19:52:09.976Z,21.10
2022-07-30T19:57:07.483Z,20.90
2022-07-30T20:02:23.064Z,20.90
2022-07-30T20:07:27.469Z,20.60
2022-07-30T20:12:29.518Z,20.50
2022-07-30T20:17:32.646Z,20.20
2022-07-30T20:22:37.027Z,20.20
2022-07-30T20:27:40.417Z,20.00
2022-07-30T20:32:46.423Z,19.80
2022-07-30T20:37:54.819Z,19.70
2022-07-30T20:42:57.557Z,19.60
2022-07-30T20:48:02.581Z,19.60
2022-07-30T20:53:04.330Z,19.50
2022-07-30T20:58:16.274Z,19.30
2022-07-30T21:03:21.466Z,19.10
2022-07-30T21:08:25.605Z,18.80
2022-07-30T21:13:28.014Z,18.80
2022-07-30T21:18:34.103Z,18.40
2022-07-30T21:23:36.201Z,18.50
2022-07-30T21:33:42.299Z,18.50
2022-07-30T21:38:44.406Z,17.90
2022-07-30T21:43:46.374Z,18.10
2022-07-30T21:48:56.486Z,18.10
2022-07-30T21:54:00.172Z,17.80
2022-07-30T21:59:02.655Z,17.80
2022-07-30T22:04:07.827Z,17.60
2022-07-30T22:09:19.479Z,17.40
2022-07-30T22:14:35.288Z,17.30
2022-07-30T22:19:37.317Z,17.80
2022-07-30T22:29:42.589Z,17.30
2022-07-30T22:34:44.834Z,17.30
2022-07-30T22:39:59.791Z,17.60
2022-07-30T22:45:04.593Z,17.70
2022-07-30T23:00:14.936Z,16.90
2022-07-30T23:35:47.925Z,16.40
2022-07-30T23:50:56.651Z,16.70
